Eagle (EGE/KEGE)

Information

Location
Eagle, CO
Local Time
05:50 / 5:50 am
GMT Time
12:50 / 12:50 pm
Gates
Unassigned
No FAA reported delays
METAR KEGE 161249Z AUTO 28005KT 3SM -SN BR FEW004 SCT023 OVC036 M03/M03 A3001 RMK AO2 P0000 FZRANO
TAF KEGE 161215Z 1612/1712 24003KT 2SM -SN BR SCT006 OVC018 FM161500 00000KT 4SM BR BKN035 FM161600 00000KT P6SM BKN035 FM170000 00000KT P6SM OVC050 FM170600 VRB03KT 6SM BR OVC100 AMD LTD TO CLD VIS AND WIND TIL 161400
  • No charts available